Vance Air Force Base
KEND : now visible

Airfield :











YOU CAN JOIN US ON...

 
LOGIN :

Register | Disclaimer

   EN    FR    IT 

 









Legend :    VFR   Marginal VFR   IFR   Intensive IFR   Very Intensive IFR
Visi :
Ceiling :
>= 8 km
>= 3000ft
5 to 8 km
1000 to 3000 ft
1500m to 5 km
500 to 1000 ft
800 to 1500m
200 to 500 ft
< 800m
< 200 ft
Symbols :   Thunderstorms  Fog  Heavy snow  Heavy precipitations  Wind > 20 kt






- Airport Elevation : 1307 ft


KEND - Vance Air Force Base

CURRENT METAR :
  • 130456Z AUTO 12014KT 10SM CLR 26/26 A2989 RMK AO2 SLP111 T02610261 $

EXPIRED METARs :
  • 130356Z AUTO 11014G22KT 10SM CLR 27/27 A2990 RMK AO2 SLP114 T02660266 $
  • 130256Z AUTO 10013KT 10SM CLR 27/27 A2989 RMK AO2 SLP110 T02730273 53003 $

TAF AMD TAF KEND
Valid from the 13 at 05:00 until the 14 at 08:00 UTC


130504Z 1305/1408 10015G20KT 9999 FEW060 QNH2990INS
BECMG 1307/1308 15015KT 8000 BR BKN020 QNH2987INS
BECMG 1318/1319 09015KT 9999 NSW SCT120 QNH2980INS TX35/1322Z TN23/1312Z
KZKC FIR / North America



MET'MAP, your aeronautical weather chart ! - Copyright ORBIFLY December 2007 - Disclaimer

ORBIFLY MET'MAP TEAM :

Programming & Development : Alexandra Zaïnal
Concept & original design : Baudouin d'Aumeries
Assistance for programming : Marc-Olivier Méhu
Technical & hardware support : Manuel Goepfert

Contact : metmap@orbifly.com




SOURCES & CREDITS :

   NOAA       Earth
Advisory